createdAt,value
2022-08-07T00:00:03.443Z,20.16
2022-08-07T00:01:44.394Z,20.10
2022-08-07T00:02:40.588Z,20.13
2022-08-07T00:03:47.302Z,20.17
2022-08-07T00:04:49.432Z,20.20
2022-08-07T00:05:53.176Z,20.20
2022-08-07T00:06:55.628Z,20.21
2022-08-07T00:08:03.094Z,20.26
2022-08-07T00:09:16.098Z,20.24
2022-08-07T00:10:26.066Z,20.29
2022-08-07T00:11:30.076Z,20.24
2022-08-07T00:12:34.931Z,20.26
2022-08-07T00:13:46.228Z,20.21
2022-08-07T00:14:48.193Z,20.20
2022-08-07T00:15:51.801Z,20.20
2022-08-07T00:16:53.585Z,20.19
2022-08-07T00:17:55.189Z,20.20
2022-08-07T00:18:56.849Z,20.23
2022-08-07T00:20:02.753Z,20.17
2022-08-07T00:21:08.236Z,20.13
2022-08-07T00:22:35.358Z,20.17
2022-08-07T00:23:39.642Z,20.20
2022-08-07T00:24:43.164Z,20.26
2022-08-07T00:25:58.130Z,20.26
2022-08-07T00:27:07.310Z,20.21
2022-08-07T00:28:10.835Z,20.14
2022-08-07T00:29:12.433Z,20.13
2022-08-07T00:30:26.433Z,20.14
2022-08-07T00:31:37.897Z,20.13
2022-08-07T00:32:43.237Z,20.08
2022-08-07T00:33:47.701Z,20.05
2022-08-07T00:34:50.685Z,20.05
2022-08-07T00:35:53.783Z,20.08
2022-08-07T00:36:55.456Z,20.03
2022-08-07T00:37:57.889Z,19.99
2022-08-07T00:38:59.536Z,20.03
2022-08-07T00:40:02.059Z,20.08
2022-08-07T00:41:04.837Z,20.10
2022-08-07T00:42:11.765Z,20.01
2022-08-07T00:44:01.181Z,19.94
2022-08-07T00:44:41.250Z,19.99
2022-08-07T00:45:46.438Z,20.01
2022-08-07T00:46:48.271Z,20.03
2022-08-07T00:48:05.429Z,19.99
2022-08-07T00:49:10.423Z,20.03
2022-08-07T00:50:50.887Z,19.94
2022-08-07T00:51:56.582Z,19.94
2022-08-07T00:52:59.588Z,19.96
2022-08-07T00:54:01.897Z,19.99
2022-08-07T00:55:05.002Z,20.08
2022-08-07T00:56:14.080Z,20.05
2022-08-07T00:57:16.966Z,20.01
2022-08-07T00:58:19.553Z,20.03
2022-08-07T00:59:35.193Z,20.08
2022-08-07T01:00:37.280Z,20.12
2022-08-07T01:01:43.980Z,20.10
2022-08-07T01:02:46.535Z,20.12
2022-08-07T01:03:55.708Z,20.17
2022-08-07T01:05:01.373Z,20.16
2022-08-07T01:06:04.002Z,20.16
2022-08-07T01:07:05.917Z,20.17
2022-08-07T01:08:09.763Z,20.13
2022-08-07T01:10:04.013Z,20.17
2022-08-07T01:10:34.975Z,20.19
2022-08-07T01:12:24.006Z,20.24
2022-08-07T01:12:58.265Z,20.26
2022-08-07T01:14:00.592Z,20.23
2022-08-07T01:15:04.074Z,20.17
2022-08-07T01:16:06.996Z,20.21
2022-08-07T01:17:09.970Z,20.27
2022-08-07T01:18:17.772Z,20.30
2022-08-07T01:19:20.389Z,20.19
2022-08-07T01:20:22.873Z,20.21
2022-08-07T01:21:32.605Z,20.17
2022-08-07T01:22:46.807Z,20.16
2022-08-07T01:23:55.931Z,20.19
2022-08-07T01:24:58.243Z,20.17
2022-08-07T01:26:00.446Z,20.20
2022-08-07T01:27:02.534Z,20.26
2022-08-07T01:28:04.466Z,20.24
2022-08-07T01:29:06.099Z,20.24
2022-08-07T01:30:10.835Z,20.29
2022-08-07T01:31:15.271Z,20.27
2022-08-07T01:32:18.419Z,20.24
2022-08-07T01:33:20.262Z,20.20
2022-08-07T01:34:30.884Z,20.12
2022-08-07T01:35:53.783Z,20.17
2022-08-07T01:36:58.299Z,20.17
2022-08-07T01:38:00.101Z,20.19
2022-08-07T01:39:01.901Z,20.20
2022-08-07T01:40:14.962Z,20.21
2022-08-07T01:41:26.093Z,20.24
2022-08-07T01:42:39.947Z,20.26
2022-08-07T01:43:50.363Z,20.24
2022-08-07T01:44:52.580Z,20.24
2022-08-07T01:45:55.231Z,20.20
2022-08-07T01:47:01.202Z,20.26
2022-08-07T01:48:30.192Z,20.26
2022-08-07T01:49:32.884Z,20.23
2022-08-07T01:50:36.655Z,20.24
2022-08-07T01:52:02.206Z,20.24
2022-08-07T01:53:00.470Z,20.21
2022-08-07T01:54:12.141Z,20.27
2022-08-07T01:55:24.186Z,20.24
2022-08-07T01:56:30.290Z,20.23
2022-08-07T01:58:05.602Z,20.20
2022-08-07T01:59:06.546Z,20.20
2022-08-07T02:00:13.378Z,20.20
2022-08-07T02:01:25.335Z,20.10
2022-08-07T02:03:19.465Z,20.10
2022-08-07T02:04:12.137Z,20.13
2022-08-07T02:05:48.267Z,20.14
2022-08-07T02:06:39.340Z,20.12
2022-08-07T02:07:50.561Z,20.10
2022-08-07T02:08:54.307Z,20.03
2022-08-07T02:09:58.470Z,20.01
2022-08-07T02:11:00.438Z,20.06
2022-08-07T02:12:17.780Z,20.10
2022-08-07T02:13:23.669Z,20.06
2022-08-07T02:14:47.088Z,20.00
2022-08-07T02:15:53.050Z,20.03
2022-08-07T02:16:54.861Z,20.08
2022-08-07T02:17:56.815Z,20.06
2022-08-07T02:18:58.412Z,19.99
2022-08-07T02:20:06.688Z,20.03
2022-08-07T02:21:16.188Z,20.05
2022-08-07T02:22:21.140Z,20.03
2022-08-07T02:23:27.764Z,19.94
2022-08-07T02:24:29.940Z,19.93
2022-08-07T02:26:31.116Z,19.90
2022-08-07T02:26:56.052Z,19.82
2022-08-07T02:28:01.816Z,19.82
2022-08-07T02:29:13.631Z,19.89
2022-08-07T02:30:15.741Z,19.89
2022-08-07T02:31:28.565Z,19.90
2022-08-07T02:32:30.539Z,19.89
2022-08-07T02:34:01.413Z,19.93
2022-08-07T02:34:54.937Z,19.87
2022-08-07T02:36:30.672Z,19.86
2022-08-07T02:37:21.166Z,19.70
2022-08-07T02:38:28.209Z,19.78
2022-08-07T02:39:42.872Z,19.78
2022-08-07T02:40:56.248Z,19.73
2022-08-07T02:41:58.412Z,19.72
2022-08-07T02:43:01.150Z,19.78
2022-08-07T02:44:09.470Z,19.72
2022-08-07T02:45:57.436Z,19.72
2022-08-07T02:46:36.766Z,19.79
2022-08-07T02:47:45.408Z,19.80
2022-08-07T02:48:55.011Z,19.76
2022-08-07T02:49:59.788Z,19.68
2022-08-07T02:51:07.319Z,19.66
2022-08-07T02:52:40.523Z,19.69
2022-08-07T02:53:46.424Z,19.73
2022-08-07T02:54:48.036Z,19.76
2022-08-07T02:56:03.588Z,19.79
2022-08-07T02:57:06.841Z,19.76
2022-08-07T02:58:11.190Z,19.76
2022-08-07T02:59:15.018Z,19.82
2022-08-07T03:00:16.849Z,19.83
2022-08-07T03:01:35.398Z,19.78
2022-08-07T03:02:37.876Z,19.75
2022-08-07T03:03:56.495Z,19.76
2022-08-07T03:05:06.749Z,19.80
2022-08-07T03:06:16.398Z,19.80
2022-08-07T03:08:05.043Z,19.82
2022-08-07T03:08:48.699Z,19.82
2022-08-07T03:09:53.444Z,19.90
2022-08-07T03:10:55.818Z,19.87
2022-08-07T03:11:57.866Z,19.87
2022-08-07T03:13:04.432Z,19.89
2022-08-07T03:14:06.236Z,19.94
2022-08-07T03:15:08.333Z,19.90
2022-08-07T03:16:10.125Z,19.90
2022-08-07T03:17:14.094Z,19.96
2022-08-07T03:18:17.476Z,19.90
2022-08-07T03:19:21.823Z,19.90
2022-08-07T03:20:23.696Z,19.89
2022-08-07T03:21:25.448Z,19.86
2022-08-07T03:22:29.567Z,19.87
2022-08-07T03:23:34.086Z,19.87
2022-08-07T03:24:53.980Z,19.89
2022-08-07T03:25:59.774Z,19.85
2022-08-07T03:27:03.469Z,19.87
2022-08-07T03:28:09.522Z,19.82
2022-08-07T03:29:37.733Z,19.83
2022-08-07T03:30:39.844Z,19.89
2022-08-07T03:31:43.987Z,19.90
2022-08-07T03:32:49.385Z,19.94
2022-08-07T03:34:01.320Z,19.96
2022-08-07T03:35:17.795Z,19.85
2022-08-07T03:36:21.016Z,19.87
2022-08-07T03:37:28.026Z,19.85
2022-08-07T03:38:34.054Z,19.90
2022-08-07T03:39:56.594Z,19.99
2022-08-07T03:40:58.092Z,20.00
2022-08-07T03:42:00.742Z,20.00
2022-08-07T03:43:02.461Z,20.01
2022-08-07T03:44:04.667Z,20.08
2022-08-07T03:45:07.340Z,20.03
2022-08-07T03:46:10.634Z,20.10
2022-08-07T03:47:20.323Z,20.09
2022-08-07T03:48:24.527Z,20.12
2022-08-07T03:49:27.969Z,20.10
2022-08-07T03:50:29.816Z,20.08
2022-08-07T03:51:47.117Z,20.10
2022-08-07T03:52:49.720Z,20.10
2022-08-07T03:54:33.448Z,20.09
2022-08-07T03:55:13.063Z,20.10
2022-08-07T03:56:33.411Z,20.13
2022-08-07T03:58:08.804Z,20.09
2022-08-07T03:59:09.478Z,20.05
2022-08-07T04:00:14.833Z,20.01
2022-08-07T04:01:17.441Z,20.00
2022-08-07T04:02:19.092Z,20.01
2022-08-07T04:03:21.342Z,20.01
2022-08-07T04:04:23.040Z,20.03
2022-08-07T04:05:28.794Z,19.97
2022-08-07T04:06:43.666Z,19.94
2022-08-07T04:07:46.813Z,19.99
2022-08-07T04:08:50.082Z,19.97
2022-08-07T04:09:52.004Z,19.93
2022-08-07T04:12:20.765Z,19.92
2022-08-07T04:12:23.990Z,19.90
2022-08-07T04:13:30.272Z,19.93
2022-08-07T04:14:51.895Z,19.94
2022-08-07T04:15:54.777Z,19.90
2022-08-07T04:16:58.530Z,19.86
2022-08-07T04:18:30.756Z,19.85
2022-08-07T04:19:51.290Z,19.92
2022-08-07T04:20:54.356Z,19.87
2022-08-07T04:21:59.285Z,19.90
2022-08-07T04:23:07.186Z,19.93
2022-08-07T04:24:30.761Z,19.92
2022-08-07T04:25:39.296Z,19.89
2022-08-07T04:26:43.707Z,19.90
2022-08-07T04:27:53.792Z,19.92
2022-08-07T04:29:02.986Z,19.90
2022-08-07T04:30:13.412Z,19.92
2022-08-07T04:31:38.713Z,19.96
2022-08-07T04:32:48.885Z,19.89
2022-08-07T04:34:00.146Z,19.76
2022-08-07T04:35:06.284Z,19.72
2022-08-07T04:36:09.121Z,19.72
2022-08-07T04:37:20.236Z,19.78
2022-08-07T04:38:22.500Z,19.79
2022-08-07T04:39:26.249Z,19.66
2022-08-07T04:40:30.142Z,19.65
2022-08-07T04:41:36.946Z,19.62
2022-08-07T04:42:38.672Z,19.51
2022-08-07T04:44:10.325Z,19.52
2022-08-07T04:45:08.903Z,19.48
2022-08-07T04:46:26.094Z,19.41
2022-08-07T04:48:29.852Z,19.47
2022-08-07T04:49:37.781Z,19.42
2022-08-07T04:50:52.905Z,19.41
2022-08-07T04:52:05.410Z,19.47
2022-08-07T04:53:40.083Z,19.38
2022-08-07T04:54:38.873Z,19.34
2022-08-07T04:58:10.151Z,19.34
2022-08-07T04:58:13.157Z,19.41
2022-08-07T04:59:17.173Z,19.42
2022-08-07T05:00:56.072Z,19.48
2022-08-07T05:02:00.811Z,19.48
2022-08-07T05:03:17.203Z,19.48
2022-08-07T05:04:50.015Z,19.45
2022-08-07T05:05:59.039Z,19.48
2022-08-07T05:07:27.587Z,19.57
2022-08-07T05:09:00.777Z,19.66
2022-08-07T05:10:28.765Z,19.68
2022-08-07T05:11:57.455Z,19.65
2022-08-07T05:14:44.541Z,19.75
2022-08-07T05:14:52.167Z,19.73
2022-08-07T05:15:57.883Z,19.75
2022-08-07T05:17:00.851Z,19.76
2022-08-07T05:18:10.412Z,19.79
2022-08-07T05:19:13.441Z,19.75
2022-08-07T05:20:17.102Z,19.85
2022-08-07T05:21:59.797Z,19.90
2022-08-07T05:22:41.706Z,19.97
2022-08-07T05:23:48.668Z,20.05
2022-08-07T05:24:51.397Z,20.06
2022-08-07T05:26:11.040Z,20.10
2022-08-07T05:28:02.143Z,20.16
2022-08-07T05:28:37.035Z,20.21
2022-08-07T05:29:51.253Z,20.20
2022-08-07T05:30:55.552Z,20.20
2022-08-07T05:31:59.911Z,20.16
2022-08-07T05:33:02.388Z,20.23
2022-08-07T05:34:11.062Z,20.29
2022-08-07T05:35:13.614Z,20.26
2022-08-07T05:36:22.369Z,20.33
2022-08-07T05:37:26.001Z,20.36
2022-08-07T05:39:00.168Z,20.40
2022-08-07T05:40:17.228Z,20.39
2022-08-07T05:41:14.126Z,20.43
2022-08-07T05:42:33.206Z,20.48
2022-08-07T05:44:01.179Z,20.44
2022-08-07T05:45:14.192Z,20.52
2022-08-07T05:46:19.907Z,20.55
2022-08-07T05:47:38.588Z,20.55
2022-08-07T05:48:58.644Z,20.60
2022-08-07T05:50:01.280Z,20.65
2022-08-07T05:51:03.435Z,20.63
2022-08-07T05:52:05.440Z,20.67
2022-08-07T05:53:07.128Z,20.68
2022-08-07T05:54:44.020Z,20.71
2022-08-07T05:56:03.851Z,20.71
2022-08-07T05:57:07.724Z,20.68
2022-08-07T05:58:10.245Z,20.70
2022-08-07T05:59:17.020Z,20.72
2022-08-07T06:00:18.858Z,20.75
2022-08-07T06:01:22.114Z,20.78
2022-08-07T06:02:28.922Z,20.75
2022-08-07T06:03:53.862Z,20.80
2022-08-07T06:04:55.208Z,20.82
2022-08-07T06:05:57.256Z,20.81
2022-08-07T06:07:04.528Z,20.78
2022-08-07T06:08:14.802Z,20.77
2022-08-07T06:09:44.821Z,20.84
2022-08-07T06:10:51.343Z,20.84
2022-08-07T06:11:56.435Z,20.88
2022-08-07T06:12:58.062Z,20.84
2022-08-07T06:14:13.094Z,20.87
2022-08-07T06:15:21.757Z,20.92
2022-08-07T06:16:40.507Z,20.90
2022-08-07T06:17:53.647Z,20.92
2022-08-07T06:18:56.833Z,20.99
2022-08-07T06:20:04.030Z,20.94
2022-08-07T06:22:14.680Z,20.98
2022-08-07T06:22:27.977Z,20.90
2022-08-07T06:24:38.241Z,20.94
2022-08-07T06:25:00.987Z,20.94
2022-08-07T06:26:03.146Z,20.84
2022-08-07T06:27:05.007Z,20.74
2022-08-07T06:28:08.849Z,20.78
2022-08-07T06:29:10.538Z,20.74
2022-08-07T06:30:32.478Z,20.71
2022-08-07T06:31:47.306Z,20.67
2022-08-07T06:32:52.200Z,20.60
2022-08-07T06:33:54.723Z,20.68
2022-08-07T06:34:56.367Z,20.65
2022-08-07T06:36:12.019Z,20.63
2022-08-07T06:37:17.282Z,20.61
2022-08-07T06:38:22.079Z,20.70
2022-08-07T06:40:18.023Z,20.74
2022-08-07T06:40:52.850Z,20.78
2022-08-07T06:42:03.295Z,20.80
2022-08-07T06:43:05.382Z,20.85
2022-08-07T06:44:22.811Z,20.95
2022-08-07T06:45:26.036Z,20.94
2022-08-07T06:46:31.471Z,21.01
2022-08-07T06:47:48.051Z,21.05
2022-08-07T06:48:58.694Z,21.08
2022-08-07T06:50:00.615Z,21.14
2022-08-07T06:51:08.261Z,21.15
2022-08-07T06:52:11.802Z,21.21
2022-08-07T06:53:49.214Z,21.11
2022-08-07T06:55:31.569Z,21.16
2022-08-07T06:56:00.942Z,21.22
2022-08-07T06:57:03.824Z,21.23
2022-08-07T06:58:10.345Z,21.28
2022-08-07T07:00:12.287Z,21.31
2022-08-07T07:00:42.327Z,21.33
2022-08-07T07:01:50.830Z,21.42
2022-08-07T07:02:57.715Z,21.49
2022-08-07T07:04:28.427Z,21.46
2022-08-07T07:06:03.226Z,21.59
2022-08-07T07:07:00.699Z,21.57
2022-08-07T07:08:06.687Z,21.62
2022-08-07T07:09:18.163Z,21.66
2022-08-07T07:10:35.762Z,21.66
2022-08-07T07:12:08.621Z,21.59
2022-08-07T07:13:04.606Z,21.65
2022-08-07T07:14:08.534Z,21.72
2022-08-07T07:15:26.507Z,21.76
2022-08-07T07:16:45.129Z,21.87
2022-08-07T07:18:05.528Z,21.83
2022-08-07T07:19:41.042Z,21.92
2022-08-07T07:20:42.295Z,21.98
2022-08-07T07:22:04.908Z,22.00
2022-08-07T07:24:10.324Z,22.11
2022-08-07T07:24:28.110Z,22.10
2022-08-07T07:26:34.981Z,22.16
2022-08-07T07:26:52.573Z,22.22
2022-08-07T07:28:29.788Z,22.25
2022-08-07T07:29:56.608Z,22.22
2022-08-07T07:31:08.226Z,22.31
2022-08-07T07:32:12.373Z,22.38
2022-08-07T07:33:15.818Z,22.51
2022-08-07T07:34:19.916Z,22.49
2022-08-07T07:35:22.532Z,22.61
2022-08-07T07:36:32.165Z,22.65
2022-08-07T07:37:49.542Z,22.67
2022-08-07T07:38:56.037Z,22.81
2022-08-07T07:39:59.101Z,22.84
2022-08-07T07:41:03.347Z,22.91
2022-08-07T07:42:13.067Z,22.86
2022-08-07T07:43:18.808Z,22.88
2022-08-07T07:44:29.234Z,22.98
2022-08-07T07:46:53.642Z,23.09
2022-08-07T07:46:55.224Z,23.13
2022-08-07T07:48:00.708Z,23.20
2022-08-07T07:49:09.139Z,23.15
2022-08-07T07:50:35.337Z,23.19
2022-08-07T07:51:58.580Z,23.22
2022-08-07T07:53:01.264Z,23.27
2022-08-07T07:54:03.316Z,23.36
2022-08-07T07:55:05.533Z,23.42
2022-08-07T07:56:07.404Z,23.49
2022-08-07T07:57:10.436Z,23.49
2022-08-07T07:58:13.558Z,23.59
2022-08-07T07:59:15.194Z,23.43
2022-08-07T08:00:21.017Z,23.49
2022-08-07T08:02:02.171Z,23.66
2022-08-07T08:03:04.781Z,23.74
2022-08-07T08:04:11.510Z,23.81
2022-08-07T08:05:15.041Z,23.85
2022-08-07T08:06:16.876Z,23.87
2022-08-07T08:07:20.173Z,23.88
2022-08-07T08:08:35.555Z,23.91
2022-08-07T08:09:51.656Z,23.93
2022-08-07T08:11:00.646Z,24.04
2022-08-07T08:12:06.020Z,24.14
2022-08-07T08:13:10.471Z,24.22
2022-08-07T08:14:19.238Z,24.26
2022-08-07T08:15:27.635Z,24.31
2022-08-07T08:16:50.301Z,24.42
2022-08-07T08:18:18.066Z,24.35
2022-08-07T08:19:18.064Z,24.43
2022-08-07T08:20:38.372Z,24.53
2022-08-07T08:22:03.651Z,24.66
2022-08-07T08:23:27.879Z,24.83
2022-08-07T08:24:51.262Z,24.99
2022-08-07T08:26:18.651Z,25.07
2022-08-07T08:27:23.280Z,25.20
2022-08-07T08:28:38.503Z,25.20
2022-08-07T08:29:54.423Z,25.17
2022-08-07T08:30:59.083Z,25.12
2022-08-07T08:32:17.911Z,25.10
2022-08-07T08:33:22.001Z,25.12
2022-08-07T08:34:26.681Z,25.22
2022-08-07T08:35:39.086Z,25.17
2022-08-07T08:36:46.352Z,24.97
2022-08-07T08:38:01.445Z,24.99
2022-08-07T08:39:05.442Z,25.02
2022-08-07T08:40:11.551Z,25.10
2022-08-07T08:42:03.709Z,25.09
2022-08-07T08:43:17.811Z,25.13
2022-08-07T08:44:29.379Z,25.20
2022-08-07T08:45:58.657Z,25.28
2022-08-07T08:47:10.013Z,25.37
2022-08-07T08:48:38.408Z,25.36
2022-08-07T08:50:05.664Z,25.36
2022-08-07T08:51:22.453Z,25.37
2022-08-07T08:52:35.878Z,25.55
2022-08-07T08:54:11.085Z,25.75
2022-08-07T08:55:54.993Z,25.88
2022-08-07T08:56:52.320Z,25.96
2022-08-07T08:58:13.322Z,26.06
2022-08-07T08:59:41.765Z,25.95
2022-08-07T09:00:48.548Z,26.02
2022-08-07T09:02:09.047Z,25.91
2022-08-07T09:03:15.303Z,25.85
2022-08-07T09:05:01.385Z,25.91
2022-08-07T09:06:11.622Z,25.89
2022-08-07T09:07:45.944Z,25.95
2022-08-07T09:09:01.780Z,25.87
2022-08-07T09:10:39.160Z,25.95
2022-08-07T09:12:30.148Z,25.91
2022-08-07T09:13:56.005Z,25.87
2022-08-07T09:16:25.528Z,25.96
2022-08-07T09:17:00.045Z,26.14
2022-08-07T09:18:38.145Z,26.19
2022-08-07T09:19:51.894Z,26.33
2022-08-07T09:21:01.721Z,26.35
2022-08-07T09:24:29.343Z,26.40
2022-08-07T09:24:31.665Z,26.38
2022-08-07T09:25:43.211Z,26.32
2022-08-07T09:27:12.076Z,26.26
2022-08-07T09:30:00.793Z,26.28
2022-08-07T09:30:04.319Z,26.14
2022-08-07T09:31:16.075Z,26.31
2022-08-07T09:32:31.967Z,26.33
2022-08-07T09:33:56.968Z,26.35
2022-08-07T09:36:05.425Z,26.29
2022-08-07T09:37:02.026Z,26.28
2022-08-07T09:38:12.095Z,26.33
2022-08-07T09:39:54.983Z,26.35
2022-08-07T09:41:05.138Z,26.48
2022-08-07T09:42:23.149Z,26.57
2022-08-07T09:44:03.611Z,26.57
2022-08-07T09:47:51.832Z,26.59
2022-08-07T09:47:51.832Z,26.53
2022-08-07T09:48:50.154Z,26.50
2022-08-07T09:50:20.961Z,26.49
2022-08-07T09:52:10.926Z,26.53
2022-08-07T09:52:51.883Z,26.57
2022-08-07T09:54:02.054Z,26.61
2022-08-07T09:55:29.240Z,26.59
2022-08-07T09:57:06.436Z,26.60
2022-08-07T09:58:32.264Z,26.60
2022-08-07T10:00:01.337Z,26.49
2022-08-07T10:01:50.484Z,26.55
2022-08-07T10:02:57.234Z,26.53
2022-08-07T10:04:06.115Z,26.55
2022-08-07T10:06:00.292Z,26.56
2022-08-07T10:07:24.202Z,26.48
2022-08-07T10:08:51.489Z,26.49
2022-08-07T10:10:21.656Z,26.60
2022-08-07T10:12:01.779Z,26.66
2022-08-07T10:13:54.697Z,26.77
2022-08-07T10:15:18.829Z,26.82
2022-08-07T10:16:59.610Z,26.76
2022-08-07T10:18:11.925Z,26.82
2022-08-07T10:19:37.579Z,26.82
2022-08-07T10:21:00.431Z,26.86
2022-08-07T10:22:36.855Z,26.90
2022-08-07T10:24:10.157Z,26.87
2022-08-07T10:25:42.731Z,27.00
2022-08-07T10:27:06.739Z,27.00
2022-08-07T10:28:26.011Z,27.10
2022-08-07T10:30:06.543Z,27.21
2022-08-07T10:31:31.384Z,27.28
2022-08-07T10:33:14.842Z,27.40
2022-08-07T10:34:27.268Z,27.48
2022-08-07T10:35:55.567Z,27.55
2022-08-07T10:37:18.797Z,27.61
2022-08-07T10:38:49.273Z,27.63
2022-08-07T10:40:09.033Z,27.73
2022-08-07T10:41:51.985Z,27.79
2022-08-07T10:43:06.503Z,27.78
2022-08-07T10:44:16.243Z,27.78
2022-08-07T10:45:44.523Z,27.68
2022-08-07T10:47:00.082Z,27.72
2022-08-07T10:48:09.697Z,27.71
2022-08-07T10:49:49.385Z,27.78
2022-08-07T10:50:55.120Z,27.82
2022-08-07T10:52:13.752Z,27.91
2022-08-07T10:53:22.617Z,27.95
2022-08-07T10:55:00.938Z,28.02
2022-08-07T10:56:31.421Z,28.12
2022-08-07T10:57:51.778Z,28.19
2022-08-07T10:59:21.480Z,28.20
2022-08-07T11:00:39.330Z,28.23
2022-08-07T11:02:12.402Z,28.23
2022-08-07T11:03:52.580Z,28.13
2022-08-07T11:05:14.037Z,28.13
2022-08-07T11:06:29.233Z,28.16
2022-08-07T11:07:59.327Z,28.22
2022-08-07T11:09:11.681Z,28.32
2022-08-07T11:11:06.226Z,28.35
2022-08-07T11:12:19.144Z,28.47
2022-08-07T11:14:43.607Z,28.53
2022-08-07T11:15:14.677Z,28.49
2022-08-07T11:16:20.889Z,28.53
2022-08-07T11:17:45.090Z,28.59
2022-08-07T11:18:53.293Z,28.61
2022-08-07T11:20:09.792Z,28.61
2022-08-07T11:21:31.932Z,28.67
2022-08-07T11:22:46.292Z,28.39
2022-08-07T11:24:14.301Z,28.49
2022-08-07T11:25:26.185Z,28.39
2022-08-07T11:26:53.882Z,28.42
2022-08-07T11:28:17.552Z,28.33
2022-08-07T11:29:41.820Z,28.37
2022-08-07T11:31:08.801Z,28.40
2022-08-07T11:32:31.146Z,28.36
2022-08-07T11:33:59.853Z,28.52
2022-08-07T11:35:25.181Z,28.57
2022-08-07T11:36:53.228Z,28.65
2022-08-07T11:38:12.614Z,28.88
2022-08-07T11:40:03.429Z,28.74
2022-08-07T11:41:22.390Z,28.81
2022-08-07T11:43:08.260Z,28.94
2022-08-07T11:44:23.559Z,28.90
2022-08-07T11:45:50.007Z,28.90
2022-08-07T11:47:04.742Z,28.93
2022-08-07T11:48:29.550Z,28.97
2022-08-07T11:50:30.696Z,28.94
2022-08-07T11:51:58.582Z,28.75
2022-08-07T11:54:00.802Z,28.84
2022-08-07T11:56:18.475Z,28.95
2022-08-07T11:58:00.065Z,29.12
2022-08-07T11:58:51.116Z,29.16
2022-08-07T12:00:19.040Z,29.16
2022-08-07T12:01:27.752Z,28.98
2022-08-07T12:03:45.199Z,29.03
2022-08-07T12:05:02.007Z,29.11
2022-08-07T12:06:39.920Z,29.14
2022-08-07T12:08:25.879Z,29.19
2022-08-07T12:10:08.132Z,29.24
2022-08-07T12:11:21.190Z,29.32
2022-08-07T12:12:28.708Z,29.25
2022-08-07T12:13:39.207Z,29.22
2022-08-07T12:14:51.496Z,29.25
2022-08-07T12:16:06.858Z,29.29
2022-08-07T12:17:19.751Z,29.31
2022-08-07T12:18:29.768Z,29.32
2022-08-07T12:20:18.677Z,29.39
2022-08-07T12:22:37.987Z,29.45
2022-08-07T12:24:04.762Z,29.38
2022-08-07T12:26:02.977Z,29.42
2022-08-07T12:26:58.840Z,29.36
2022-08-07T12:28:05.857Z,29.39
2022-08-07T12:29:37.908Z,29.51
2022-08-07T12:30:46.710Z,29.44
2022-08-07T12:32:04.778Z,29.55
2022-08-07T12:33:23.109Z,29.61
2022-08-07T12:34:30.558Z,29.67
2022-08-07T12:35:36.271Z,29.67
2022-08-07T12:36:38.104Z,29.69
2022-08-07T12:38:10.017Z,29.73
2022-08-07T12:39:38.799Z,29.62
2022-08-07T12:40:47.596Z,29.67
2022-08-07T12:41:52.158Z,29.59
2022-08-07T12:42:57.216Z,29.54
2022-08-07T12:44:03.874Z,29.55
2022-08-07T12:45:13.732Z,29.55
2022-08-07T12:46:26.369Z,29.35
2022-08-07T12:47:37.446Z,29.46
2022-08-07T12:48:52.132Z,29.55
2022-08-07T12:50:38.294Z,29.34
2022-08-07T12:52:12.435Z,29.26
2022-08-07T12:53:17.334Z,29.26
2022-08-07T12:54:38.448Z,29.22
2022-08-07T12:56:03.670Z,29.22
2022-08-07T12:57:09.346Z,29.21
2022-08-07T12:58:14.155Z,29.26
2022-08-07T12:59:20.303Z,29.31
2022-08-07T13:00:32.525Z,29.35
2022-08-07T13:01:58.924Z,29.36
2022-08-07T13:03:23.074Z,29.38
2022-08-07T13:04:57.763Z,29.34
2022-08-07T13:06:21.571Z,29.29
2022-08-07T13:08:14.392Z,29.38
2022-08-07T13:10:21.572Z,29.32
2022-08-07T13:10:51.652Z,29.48
2022-08-07T13:12:10.104Z,29.48
2022-08-07T13:13:48.443Z,29.49
2022-08-07T13:15:09.534Z,29.44
2022-08-07T13:16:17.703Z,29.46
2022-08-07T13:17:43.718Z,29.52
2022-08-07T13:18:57.130Z,29.51
2022-08-07T13:20:00.196Z,29.54
2022-08-07T13:21:07.208Z,29.65
2022-08-07T13:22:27.869Z,29.72
2022-08-07T13:24:01.503Z,29.83
2022-08-07T13:25:15.235Z,29.92
2022-08-07T13:26:34.195Z,29.89
2022-08-07T13:28:12.707Z,29.75
2022-08-07T13:29:15.799Z,29.65
2022-08-07T13:30:18.851Z,29.72
2022-08-07T13:31:25.286Z,29.77
2022-08-07T13:32:42.278Z,29.80
2022-08-07T13:34:32.787Z,29.83
2022-08-07T13:36:00.550Z,29.75
2022-08-07T13:36:55.541Z,29.79
2022-08-07T13:38:20.306Z,29.82
2022-08-07T13:40:36.155Z,29.90
2022-08-07T13:41:27.980Z,29.85
2022-08-07T13:42:30.996Z,29.85
2022-08-07T13:43:34.248Z,29.87
2022-08-07T13:44:37.685Z,29.83
2022-08-07T13:46:20.839Z,29.93
2022-08-07T13:47:09.429Z,29.89
2022-08-07T13:48:20.590Z,29.92
2022-08-07T13:50:34.121Z,29.93
2022-08-07T13:51:01.433Z,30.05
2022-08-07T13:52:31.656Z,29.99
2022-08-07T13:53:59.651Z,30.02
2022-08-07T13:55:00.744Z,30.03
2022-08-07T13:56:02.461Z,30.05
2022-08-07T13:57:09.703Z,30.09
2022-08-07T13:58:34.714Z,30.03
2022-08-07T13:59:36.438Z,29.97
2022-08-07T14:00:53.986Z,29.95
2022-08-07T14:02:10.224Z,29.95
2022-08-07T14:03:13.831Z,30.02
2022-08-07T14:04:36.085Z,30.12
2022-08-07T14:05:38.576Z,30.13
2022-08-07T14:06:41.963Z,30.19
2022-08-07T14:08:00.722Z,30.19
2022-08-07T14:09:04.508Z,30.23
2022-08-07T14:10:21.768Z,30.28
2022-08-07T14:11:29.155Z,30.37
2022-08-07T14:12:55.703Z,30.40
2022-08-07T14:14:07.640Z,30.47
2022-08-07T14:15:11.052Z,30.50
2022-08-07T14:16:16.205Z,30.56
2022-08-07T14:18:12.887Z,30.53
2022-08-07T14:18:50.016Z,30.47
2022-08-07T14:20:43.775Z,30.50
2022-08-07T14:22:02.260Z,30.47
2022-08-07T14:23:31.365Z,30.48
2022-08-07T14:24:41.719Z,30.43
2022-08-07T14:25:45.952Z,30.44
2022-08-07T14:26:56.700Z,30.36
2022-08-07T14:28:10.895Z,30.34
2022-08-07T14:30:05.309Z,30.38
2022-08-07T14:30:46.992Z,30.37
2022-08-07T14:31:57.780Z,30.40
2022-08-07T14:33:04.451Z,30.41
2022-08-07T14:34:07.247Z,30.41
2022-08-07T14:35:45.716Z,30.44
2022-08-07T14:36:41.870Z,30.47
2022-08-07T14:37:44.514Z,30.51
2022-08-07T14:39:06.505Z,30.53
2022-08-07T14:40:15.700Z,30.54
2022-08-07T14:42:20.331Z,30.44
2022-08-07T14:43:55.966Z,30.48
2022-08-07T14:44:22.135Z,30.53
2022-08-07T14:45:49.382Z,30.41
2022-08-07T14:47:08.549Z,30.37
2022-08-07T14:48:19.725Z,30.28
2022-08-07T14:49:57.478Z,30.19
2022-08-07T14:50:48.905Z,30.21
2022-08-07T14:52:04.481Z,30.12
2022-08-07T14:53:12.027Z,30.09
2022-08-07T14:54:31.675Z,30.14
2022-08-07T14:55:55.334Z,30.09
2022-08-07T14:56:58.817Z,30.09
2022-08-07T14:58:05.017Z,30.07
2022-08-07T14:59:13.693Z,30.12
2022-08-07T15:00:33.141Z,30.23
2022-08-07T15:02:59.147Z,30.26
2022-08-07T15:04:05.694Z,30.27
2022-08-07T15:05:20.482Z,30.17
2022-08-07T15:06:25.576Z,30.16
2022-08-07T15:08:55.030Z,30.21
2022-08-07T15:10:01.443Z,30.26
2022-08-07T15:12:36.710Z,30.16
2022-08-07T15:13:06.525Z,30.26
2022-08-07T15:13:56.388Z,30.17
2022-08-07T15:15:09.311Z,30.17
2022-08-07T15:16:35.111Z,30.21
2022-08-07T15:17:55.193Z,30.27
2022-08-07T15:18:57.646Z,30.23
2022-08-07T15:21:58.804Z,30.26
2022-08-07T15:22:54.616Z,30.23
2022-08-07T15:25:14.311Z,30.20
2022-08-07T15:26:55.818Z,30.23
2022-08-07T15:30:10.103Z,30.13
2022-08-07T15:31:04.485Z,30.13
2022-08-07T15:32:07.565Z,30.17
2022-08-07T15:34:50.184Z,30.00
2022-08-07T15:36:04.794Z,29.99
2022-08-07T15:37:07.238Z,29.96
2022-08-07T15:38:17.904Z,30.02
2022-08-07T15:39:56.900Z,30.02
2022-08-07T15:41:00.387Z,30.06
2022-08-07T15:44:01.415Z,30.00
2022-08-07T15:45:04.843Z,29.93
2022-08-07T15:46:31.857Z,29.80
2022-08-07T15:48:01.050Z,29.89
2022-08-07T15:50:37.445Z,29.89
2022-08-07T15:53:02.518Z,29.92
2022-08-07T15:54:06.681Z,29.95
2022-08-07T15:55:15.517Z,29.96
2022-08-07T15:56:17.195Z,29.93
2022-08-07T15:57:39.127Z,29.86
2022-08-07T15:58:44.553Z,29.82
2022-08-07T15:59:54.118Z,29.79
2022-08-07T16:00:58.260Z,29.73
2022-08-07T16:02:01.866Z,29.73
2022-08-07T16:03:21.361Z,29.66
2022-08-07T16:04:33.680Z,29.67
2022-08-07T16:05:36.147Z,29.67
2022-08-07T16:06:51.087Z,29.69
2022-08-07T16:08:30.356Z,29.67
2022-08-07T16:09:45.133Z,29.70
2022-08-07T16:10:48.883Z,29.62
2022-08-07T16:12:28.786Z,29.62